createdAt,value
2019-06-26T00:00:11.487Z,-65
2019-06-26T00:02:41.888Z,-65
2019-06-26T00:05:11.257Z,-65
2019-06-26T00:07:41.640Z,-65
2019-06-26T00:10:11.489Z,-65
2019-06-26T00:12:40.797Z,-65
2019-06-26T00:15:10.364Z,-65
2019-06-26T00:17:39.931Z,-65
2019-06-26T00:20:09.468Z,-65
2019-06-26T00:22:38.790Z,-65
2019-06-26T00:25:08.728Z,-66
2019-06-26T00:27:38.040Z,-65
2019-06-26T00:30:08.222Z,-65
2019-06-26T00:32:37.516Z,-65
2019-06-26T00:35:07.499Z,-65
2019-06-26T00:37:36.900Z,-65
2019-06-26T00:40:06.636Z,-65
2019-06-26T00:42:35.952Z,-65
2019-06-26T00:45:06.766Z,-64
2019-06-26T00:47:36.076Z,-65
2019-06-26T00:50:08.662Z,-65
2019-06-26T00:52:38.231Z,-65
2019-06-26T00:55:08.216Z,-65
2019-06-26T00:57:37.582Z,-65
2019-06-26T01:00:11.737Z,-65
2019-06-26T01:02:41.989Z,-65
2019-06-26T01:05:13.227Z,-66
2019-06-26T01:07:42.525Z,-65
2019-06-26T01:10:13.094Z,-65
2019-06-26T01:12:42.398Z,-65
2019-06-26T01:15:13.246Z,-65
2019-06-26T01:17:42.571Z,-66
2019-06-26T01:20:12.112Z,-65
2019-06-26T01:22:41.523Z,-65
2019-06-26T01:25:12.653Z,-65
2019-06-26T01:27:42.090Z,-65
2019-06-26T01:30:11.833Z,-64
2019-06-26T01:33:00.537Z,-65
2019-06-26T01:35:30.988Z,-65
2019-06-26T01:38:00.441Z,-65
2019-06-26T01:40:29.807Z,-65
2019-06-26T01:42:59.180Z,-65
2019-06-26T01:45:29.124Z,-66
2019-06-26T01:47:58.430Z,-65
2019-06-26T01:50:27.747Z,-65
2019-06-26T01:52:57.050Z,-65
2019-06-26T01:55:27.989Z,-65
2019-06-26T01:57:57.403Z,-65
2019-06-26T02:00:27.274Z,-65
2019-06-26T02:02:56.590Z,-65
2019-06-26T02:05:25.914Z,-65
2019-06-26T02:07:55.226Z,-65
2019-06-26T02:10:24.602Z,-65
2019-06-26T02:12:53.909Z,-65
2019-06-26T02:15:23.222Z,-65
2019-06-26T02:17:52.539Z,-66
2019-06-26T02:20:21.925Z,-65
2019-06-26T02:22:52.175Z,-65
2019-06-26T02:25:21.489Z,-65
2019-06-26T02:27:50.882Z,-65
2019-06-26T02:30:21.146Z,-64
2019-06-26T02:32:50.524Z,-65
2019-06-26T02:35:23.738Z,-65
2019-06-26T02:37:53.119Z,-65
2019-06-26T02:40:22.925Z,-65
2019-06-26T02:42:52.250Z,-65
2019-06-26T02:45:21.567Z,-65
2019-06-26T02:47:50.917Z,-65
2019-06-26T02:50:20.267Z,-65
2019-06-26T02:52:49.594Z,-65
2019-06-26T02:55:18.936Z,-65
2019-06-26T02:57:49.291Z,-65
2019-06-26T03:00:18.642Z,-65
2019-06-26T03:02:47.994Z,-65
2019-06-26T03:05:17.318Z,-65
2019-06-26T03:07:46.696Z,-65
2019-06-26T03:10:16.194Z,-65
2019-06-26T03:12:45.503Z,-64
2019-06-26T03:15:14.988Z,-65
2019-06-26T03:17:54.727Z,-65
2019-06-26T03:20:16.913Z,-65
2019-06-26T03:22:46.256Z,-65
2019-06-26T03:25:15.557Z,-65
2019-06-26T03:27:44.945Z,-66
2019-06-26T03:30:14.838Z,-65
2019-06-26T03:32:44.161Z,-65
2019-06-26T03:35:14.594Z,-66
2019-06-26T03:37:43.905Z,-65
2019-06-26T03:40:13.461Z,-65
2019-06-26T03:42:42.776Z,-65
2019-06-26T03:45:25.258Z,-65
2019-06-26T03:47:44.408Z,-65
2019-06-26T03:50:14.063Z,-65
2019-06-26T03:52:43.497Z,-66
2019-06-26T03:55:13.052Z,-65
2019-06-26T03:57:42.455Z,-65
2019-06-26T04:00:13.305Z,-65
2019-06-26T04:02:42.778Z,-65
2019-06-26T04:05:12.121Z,-65
2019-06-26T04:07:41.562Z,-65
2019-06-26T04:10:11.116Z,-65
2019-06-26T04:12:41.425Z,-65
2019-06-26T04:15:11.057Z,-65
2019-06-26T04:17:40.377Z,-66
2019-06-26T04:20:10.126Z,-65
2019-06-26T04:22:39.435Z,-65
2019-06-26T04:25:09.198Z,-65
2019-06-26T04:27:38.512Z,-66
2019-06-26T04:30:14.306Z,-66
2019-06-26T04:32:43.613Z,-66
2019-06-26T04:35:13.265Z,-66
2019-06-26T04:37:42.580Z,-65
2019-06-26T04:40:12.227Z,-66
2019-06-26T04:42:41.565Z,-66
2019-06-26T04:45:12.712Z,-66
2019-06-26T04:47:42.178Z,-66
2019-06-26T04:50:11.993Z,-66
2019-06-26T04:52:41.313Z,-65
2019-06-26T04:55:10.897Z,-65
2019-06-26T04:57:40.212Z,-66
2019-06-26T05:00:11.880Z,-65
2019-06-26T05:02:42.122Z,-65
2019-06-26T05:05:12.537Z,-66
2019-06-26T05:07:41.849Z,-67
2019-06-26T05:10:13.016Z,-66
2019-06-26T05:12:42.361Z,-66
2019-06-26T05:15:12.194Z,-66
2019-06-26T05:17:41.502Z,-66
2019-06-26T05:20:11.216Z,-66
2019-06-26T05:22:40.516Z,-66
2019-06-26T05:25:10.863Z,-66
2019-06-26T05:27:40.452Z,-66
2019-06-26T05:30:11.510Z,-66
2019-06-26T05:32:40.845Z,-66
2019-06-26T05:35:10.627Z,-66
2019-06-26T05:37:40.008Z,-65
2019-06-26T05:40:12.860Z,-66
2019-06-26T05:42:42.321Z,-66
2019-06-26T05:45:12.968Z,-66
2019-06-26T05:47:42.296Z,-69
2019-06-26T05:50:12.306Z,-67
2019-06-26T05:52:43.039Z,-68
2019-06-26T05:55:13.348Z,-68
2019-06-26T05:57:42.728Z,-69
2019-06-26T06:00:12.712Z,-68
2019-06-26T06:02:42.157Z,-68
2019-06-26T06:05:12.715Z,-69
2019-06-26T06:07:42.047Z,-68
2019-06-26T06:10:12.470Z,-68
2019-06-26T06:12:41.774Z,-68
2019-06-26T06:15:11.641Z,-69
2019-06-26T06:17:40.962Z,-68
2019-06-26T06:20:10.801Z,-68
2019-06-26T06:22:40.207Z,-68
2019-06-26T06:25:09.794Z,-68
2019-06-26T06:27:39.112Z,-68
2019-06-26T06:30:08.965Z,-68
2019-06-26T06:32:38.287Z,-68
2019-06-26T06:35:08.166Z,-68
2019-06-26T06:37:38.446Z,-67
2019-06-26T06:40:09.997Z,-68
2019-06-26T06:42:39.304Z,-66
2019-06-26T06:45:09.930Z,-68
2019-06-26T06:47:39.285Z,-66
2019-06-26T06:50:08.756Z,-66
2019-06-26T06:52:38.061Z,-66
2019-06-26T06:55:07.640Z,-66
2019-06-26T06:57:37.013Z,-66
2019-06-26T07:00:07.199Z,-66
2019-06-26T07:02:36.561Z,-66
2019-06-26T07:05:06.822Z,-66
2019-06-26T07:07:36.181Z,-66
2019-06-26T07:10:07.249Z,-66
2019-06-26T07:12:36.552Z,-66
2019-06-26T07:15:10.328Z,-67
2019-06-26T07:17:39.696Z,-66
2019-06-26T07:20:11.781Z,-66
2019-06-26T07:22:41.090Z,-66
2019-06-26T07:25:10.469Z,-66
2019-06-26T07:27:39.781Z,-67
2019-06-26T07:30:09.421Z,-67
2019-06-26T07:32:38.833Z,-67
2019-06-26T07:35:09.078Z,-66
2019-06-26T07:37:38.475Z,-67
2019-06-26T07:40:08.226Z,-66
2019-06-26T07:42:37.545Z,-67
2019-06-26T07:45:08.100Z,-66
2019-06-26T07:47:43.832Z,-65
2019-06-26T07:50:09.280Z,-66
2019-06-26T07:52:38.672Z,-66
2019-06-26T07:55:11.664Z,-64
2019-06-26T07:57:39.373Z,-65
2019-06-26T08:00:09.124Z,-67
2019-06-26T08:02:38.482Z,-66
2019-06-26T08:05:08.628Z,-67
2019-06-26T08:07:40.352Z,-66
2019-06-26T08:10:10.298Z,-67
2019-06-26T08:12:39.685Z,-66
2019-06-26T08:15:09.242Z,-67
2019-06-26T08:17:38.552Z,-66
2019-06-26T08:20:09.411Z,-66
2019-06-26T08:22:38.720Z,-66
2019-06-26T08:25:08.885Z,-67
2019-06-26T08:27:38.202Z,-67
2019-06-26T08:30:08.948Z,-66
2019-06-26T08:32:38.466Z,-67
2019-06-26T08:35:08.277Z,-67
2019-06-26T08:37:37.611Z,-66
2019-06-26T08:40:07.762Z,-66
2019-06-26T08:42:37.136Z,-67
2019-06-26T08:45:07.617Z,-67
2019-06-26T08:47:36.993Z,-67
2019-06-26T08:50:07.863Z,-67
2019-06-26T08:52:37.544Z,-66
2019-06-26T08:55:11.468Z,-71
2019-06-26T08:57:40.834Z,-65
2019-06-26T09:00:12.873Z,-68
2019-06-26T09:02:42.181Z,-68
2019-06-26T09:05:11.738Z,-67
2019-06-26T09:07:42.568Z,-68
2019-06-26T09:10:12.129Z,-68
2019-06-26T09:12:41.469Z,-68
2019-06-26T09:15:11.625Z,-68
2019-06-26T09:17:40.921Z,-68
2019-06-26T09:20:10.769Z,-68
2019-06-26T09:22:40.078Z,-68
2019-06-26T09:25:21.579Z,-68
2019-06-26T09:27:42.805Z,-69
2019-06-26T09:30:12.553Z,-68
2019-06-26T09:32:41.865Z,-67
2019-06-26T09:35:11.405Z,-67
2019-06-26T09:37:40.788Z,-67
2019-06-26T09:40:10.490Z,-68
2019-06-26T09:42:40.704Z,-68
2019-06-26T09:45:10.350Z,-68
2019-06-26T09:47:39.655Z,-68
2019-06-26T09:50:09.632Z,-69
2019-06-26T09:52:38.964Z,-69
2019-06-26T09:55:08.675Z,-67
2019-06-26T09:57:38.690Z,-70
2019-06-26T10:00:15.674Z,-70
2019-06-26T10:02:44.995Z,-70
2019-06-26T10:05:14.546Z,-69
2019-06-26T10:07:44.896Z,-70
2019-06-26T10:10:15.442Z,-70
2019-06-26T10:12:44.837Z,-70
2019-06-26T10:15:15.280Z,-69
2019-06-26T10:17:44.650Z,-69
2019-06-26T10:20:15.620Z,-69
2019-06-26T10:22:45.001Z,-69
2019-06-26T10:25:14.761Z,-70
2019-06-26T10:27:45.063Z,-70
2019-06-26T10:30:14.901Z,-70
2019-06-26T10:32:44.201Z,-69
2019-06-26T10:35:13.987Z,-69
2019-06-26T10:37:43.300Z,-70
2019-06-26T10:40:16.170Z,-70
2019-06-26T10:42:44.878Z,-69
2019-06-26T10:45:14.921Z,-70
2019-06-26T10:47:44.233Z,-70
2019-06-26T10:50:13.992Z,-70
2019-06-26T10:52:43.779Z,-70
2019-06-26T10:55:13.325Z,-69
2019-06-26T10:57:42.633Z,-69
2019-06-26T11:00:14.312Z,-69
2019-06-26T11:02:43.697Z,-70
2019-06-26T11:05:14.621Z,-70
2019-06-26T11:07:44.837Z,-70
2019-06-26T11:10:15.292Z,-69
2019-06-26T11:12:48.745Z,-70
2019-06-26T11:15:15.965Z,-69
2019-06-26T11:17:46.293Z,-70
2019-06-26T11:20:15.785Z,-69
2019-06-26T11:22:45.449Z,-70
2019-06-26T11:25:15.086Z,-69
2019-06-26T11:27:44.390Z,-70
2019-06-26T11:30:14.375Z,-70
2019-06-26T11:32:43.715Z,-70
2019-06-26T11:35:13.567Z,-69
2019-06-26T11:37:42.859Z,-70
2019-06-26T11:40:14.188Z,-69
2019-06-26T11:42:43.503Z,-70
2019-06-26T11:45:13.249Z,-70
2019-06-26T11:47:45.776Z,-69
2019-06-26T11:50:14.510Z,-69
2019-06-26T11:52:44.819Z,-70
2019-06-26T11:55:14.765Z,-70
2019-06-26T11:57:44.315Z,-70
2019-06-26T12:00:16.225Z,-69
2019-06-26T12:02:45.534Z,-70
2019-06-26T12:05:15.293Z,-69
2019-06-26T12:07:44.613Z,-70
2019-06-26T12:10:17.553Z,-69
2019-06-26T12:12:46.882Z,-70
2019-06-26T12:15:17.516Z,-70
2019-06-26T12:17:46.874Z,-69
2019-06-26T12:20:19.047Z,-70
2019-06-26T12:22:47.557Z,-70
2019-06-26T12:25:18.054Z,-70
2019-06-26T12:27:47.361Z,-69
2019-06-26T12:30:17.857Z,-69
2019-06-26T12:33:02.156Z,-69
2019-06-26T12:35:18.888Z,-69
2019-06-26T12:37:48.324Z,-70
2019-06-26T12:40:17.824Z,-70
2019-06-26T12:42:47.125Z,-69
2019-06-26T12:45:16.596Z,-69
2019-06-26T12:47:47.025Z,-69
2019-06-26T12:50:34.134Z,-70
2019-06-26T12:52:49.289Z,-70
2019-06-26T12:55:18.672Z,-70
2019-06-26T12:57:47.993Z,-70
2019-06-26T13:00:17.542Z,-70
2019-06-26T13:02:46.928Z,-70
2019-06-26T13:05:16.729Z,-70
2019-06-26T13:07:46.098Z,-69
2019-06-26T13:10:16.309Z,-70
2019-06-26T13:12:46.174Z,-70
2019-06-26T13:15:15.620Z,-70
2019-06-26T13:17:44.933Z,-70
2019-06-26T13:20:14.661Z,-70
2019-06-26T13:22:43.967Z,-70
2019-06-26T13:25:16.207Z,-70
2019-06-26T13:27:46.556Z,-70
2019-06-26T13:30:18.969Z,-70
2019-06-26T13:32:48.356Z,-69
2019-06-26T13:35:17.662Z,-69
2019-06-26T13:37:46.965Z,-69
2019-06-26T13:40:16.346Z,-70
2019-06-26T13:42:46.236Z,-69
2019-06-26T13:45:15.562Z,-70
2019-06-26T13:47:44.913Z,-69
2019-06-26T13:50:14.464Z,-70
2019-06-26T13:52:43.772Z,-69
2019-06-26T13:55:13.084Z,-69
2019-06-26T13:57:42.384Z,-70
2019-06-26T14:00:12.809Z,-69
2019-06-26T14:02:42.109Z,-69
2019-06-26T14:05:12.053Z,-69
2019-06-26T14:07:41.453Z,-69
2019-06-26T14:10:11.031Z,-69
2019-06-26T14:12:40.337Z,-69
2019-06-26T14:15:11.477Z,-69
2019-06-26T14:17:40.777Z,-69
2019-06-26T14:20:11.133Z,-70
2019-06-26T14:22:40.528Z,-70
2019-06-26T14:25:10.341Z,-70
2019-06-26T14:27:39.645Z,-70
2019-06-26T14:30:09.210Z,-69
2019-06-26T14:32:38.680Z,-69
2019-06-26T14:35:08.420Z,-69
2019-06-26T14:37:37.785Z,-70
2019-06-26T14:40:08.035Z,-69
2019-06-26T14:42:37.336Z,-69
2019-06-26T14:45:07.414Z,-69
2019-06-26T14:47:36.718Z,-69
2019-06-26T14:50:09.146Z,-69
2019-06-26T14:52:38.462Z,-70
2019-06-26T14:55:08.123Z,-69
2019-06-26T14:57:39.034Z,-69
2019-06-26T15:00:09.872Z,-69
2019-06-26T15:02:39.731Z,-69
2019-06-26T15:05:09.730Z,-69
2019-06-26T15:07:39.057Z,-69
2019-06-26T15:10:08.930Z,-70
2019-06-26T15:12:38.229Z,-70
2019-06-26T15:15:09.354Z,-69
2019-06-26T15:17:39.579Z,-70
2019-06-26T15:20:09.449Z,-70
2019-06-26T15:22:38.758Z,-70
2019-06-26T15:25:08.513Z,-70
2019-06-26T15:27:40.231Z,-70
2019-06-26T15:30:11.239Z,-69
2019-06-26T15:32:43.388Z,-70
2019-06-26T15:35:12.929Z,-70
2019-06-26T15:37:44.716Z,-70
2019-06-26T15:40:14.097Z,-70
2019-06-26T15:42:43.502Z,-70
2019-06-26T15:45:13.346Z,-70
2019-06-26T15:47:42.662Z,-69
2019-06-26T15:50:12.813Z,-70
2019-06-26T15:52:42.128Z,-70
2019-06-26T15:55:12.556Z,-70
2019-06-26T15:57:41.911Z,-69
2019-06-26T16:00:11.593Z,-69
2019-06-26T16:02:40.936Z,-70
2019-06-26T16:05:12.391Z,-70
2019-06-26T16:07:41.709Z,-69
2019-06-26T16:10:11.149Z,-71
2019-06-26T16:12:41.179Z,-70
2019-06-26T16:15:10.777Z,-70
2019-06-26T16:17:56.882Z,-70
2019-06-26T16:20:26.306Z,-70
2019-06-26T16:22:55.781Z,-70
2019-06-26T16:25:26.154Z,-71
2019-06-26T16:28:05.401Z,-70
2019-06-26T16:30:28.751Z,-70
2019-06-26T16:32:58.142Z,-70
2019-06-26T16:35:27.587Z,-71
2019-06-26T16:37:56.986Z,-71
2019-06-26T16:40:26.353Z,-71
2019-06-26T16:42:55.676Z,-71
2019-06-26T16:45:24.995Z,-71
2019-06-26T16:47:55.746Z,-70
2019-06-26T16:50:25.637Z,-71
2019-06-26T16:52:54.952Z,-71
2019-06-26T16:55:24.257Z,-71
2019-06-26T16:57:53.591Z,-71
2019-06-26T17:00:23.110Z,-71
2019-06-26T17:02:52.414Z,-71
2019-06-26T17:05:21.741Z,-71
2019-06-26T17:07:51.172Z,-71
2019-06-26T17:10:20.794Z,-71
2019-06-26T17:12:50.102Z,-71
2019-06-26T17:15:19.774Z,-71
2019-06-26T17:17:49.657Z,-72
2019-06-26T17:20:19.037Z,-71
2019-06-26T17:23:01.121Z,-71
2019-06-26T17:25:19.353Z,-71
2019-06-26T17:27:49.823Z,-71
2019-06-26T17:30:19.264Z,-71
2019-06-26T17:32:48.577Z,-71
2019-06-26T17:35:17.889Z,-71
2019-06-26T17:37:47.197Z,-70
2019-06-26T17:40:16.682Z,-71
2019-06-26T17:42:46.957Z,-71
2019-06-26T17:45:16.405Z,-70
2019-06-26T17:47:45.716Z,-71
2019-06-26T17:50:16.167Z,-71
2019-06-26T17:52:45.485Z,-71
2019-06-26T17:55:15.002Z,-71
2019-06-26T17:57:47.422Z,-71
2019-06-26T18:00:16.179Z,-71
2019-06-26T18:02:46.213Z,-71
2019-06-26T18:05:15.609Z,-71
2019-06-26T18:07:44.918Z,-71
2019-06-26T18:10:14.300Z,-71
2019-06-26T18:12:44.577Z,-71
2019-06-26T18:15:13.986Z,-70
2019-06-26T18:17:43.293Z,-69
2019-06-26T18:20:13.538Z,-69
2019-06-26T18:22:42.845Z,-69
2019-06-26T18:25:12.301Z,-70
2019-06-26T18:27:41.649Z,-70
2019-06-26T18:30:12.397Z,-69
2019-06-26T18:32:41.722Z,-69
2019-06-26T18:35:11.097Z,-70
2019-06-26T18:37:40.410Z,-70
2019-06-26T18:40:10.158Z,-70
2019-06-26T18:42:39.461Z,-70
2019-06-26T18:45:11.566Z,-69
2019-06-26T18:47:40.942Z,-70
2019-06-26T18:50:10.412Z,-70
2019-06-26T18:52:39.782Z,-70
2019-06-26T18:55:09.739Z,-70
2019-06-26T18:57:39.221Z,-70
2019-06-26T19:00:09.271Z,-70
2019-06-26T19:02:38.575Z,-70
2019-06-26T19:05:08.722Z,-70
2019-06-26T19:07:38.037Z,-71
2019-06-26T19:10:08.415Z,-70
2019-06-26T19:12:37.885Z,-70
2019-06-26T19:15:07.590Z,-70
2019-06-26T19:17:36.941Z,-70
2019-06-26T19:20:06.990Z,-70
2019-06-26T19:22:37.582Z,-69
2019-06-26T19:25:07.849Z,-70
2019-06-26T19:27:37.237Z,-69
2019-06-26T19:30:08.453Z,-70
2019-06-26T19:32:38.765Z,-70
2019-06-26T19:35:18.417Z,-70
2019-06-26T19:37:39.917Z,-70
2019-06-26T19:40:10.297Z,-70
2019-06-26T19:42:39.626Z,-70
2019-06-26T19:45:09.641Z,-70
2019-06-26T19:47:41.130Z,-70
2019-06-26T19:50:10.717Z,-70
2019-06-26T19:52:40.035Z,-70
2019-06-26T19:55:09.861Z,-70
2019-06-26T19:57:39.176Z,-70
2019-06-26T20:00:10.611Z,-70
2019-06-26T20:02:39.921Z,-70
2019-06-26T20:05:09.675Z,-70
2019-06-26T20:07:39.050Z,-70
2019-06-26T20:10:10.274Z,-70
2019-06-26T20:12:39.609Z,-70
2019-06-26T20:15:09.186Z,-70
2019-06-26T20:17:39.139Z,-70
2019-06-26T20:20:11.577Z,-70
2019-06-26T20:22:40.882Z,-69
2019-06-26T20:25:11.966Z,-70
2019-06-26T20:27:42.585Z,-70
2019-06-26T20:30:13.421Z,-70
2019-06-26T20:32:42.729Z,-70
2019-06-26T20:35:12.641Z,-70
2019-06-26T20:37:41.974Z,-70
2019-06-26T20:40:11.421Z,-70
2019-06-26T20:42:40.753Z,-70
2019-06-26T20:45:12.800Z,-69
2019-06-26T20:47:43.138Z,-70
2019-06-26T20:50:13.110Z,-70
2019-06-26T20:52:42.413Z,-70
2019-06-26T20:55:11.870Z,-69
2019-06-26T20:57:41.192Z,-70
2019-06-26T21:00:10.732Z,-70
2019-06-26T21:02:40.412Z,-70
2019-06-26T21:05:09.989Z,-70
2019-06-26T21:07:39.349Z,-70
2019-06-26T21:10:09.124Z,-72
2019-06-26T21:12:38.466Z,-70
2019-06-26T21:15:08.268Z,-70
2019-06-26T21:17:37.579Z,-70
2019-06-26T21:20:07.340Z,-70
2019-06-26T21:22:37.188Z,-70
2019-06-26T21:25:17.497Z,-70
2019-06-26T21:27:39.889Z,-70
2019-06-26T21:30:10.064Z,-70
2019-06-26T21:32:39.420Z,-70
2019-06-26T21:35:08.990Z,-70
2019-06-26T21:37:38.336Z,-70
2019-06-26T21:40:07.985Z,-69
2019-06-26T21:42:37.349Z,-70
2019-06-26T21:45:07.135Z,-70
2019-06-26T21:47:36.445Z,-70
2019-06-26T21:50:18.195Z,-69
2019-06-26T21:52:48.078Z,-70
2019-06-26T21:55:30.184Z,-70
2019-06-26T21:58:06.091Z,-69
2019-06-26T22:00:53.091Z,-69
2019-06-26T22:03:40.541Z,-70
2019-06-26T22:06:15.499Z,-70
2019-06-26T22:08:46.428Z,-70
2019-06-26T22:11:16.325Z,-70
2019-06-26T22:13:45.663Z,-70
2019-06-26T22:16:14.969Z,-70
2019-06-26T22:18:44.450Z,-70
2019-06-26T22:21:13.869Z,-70
2019-06-26T22:23:44.214Z,-70
2019-06-26T22:26:14.441Z,-70
2019-06-26T22:28:47.146Z,-70
2019-06-26T22:31:16.450Z,-70
2019-06-26T22:33:45.760Z,-70
2019-06-26T22:36:15.074Z,-70
2019-06-26T22:38:44.377Z,-70
2019-06-26T22:41:15.062Z,-70
2019-06-26T22:43:44.370Z,-70
2019-06-26T22:46:13.678Z,-70
2019-06-26T22:48:42.991Z,-70
2019-06-26T22:51:12.296Z,-70
2019-06-26T22:53:41.606Z,-69
2019-06-26T22:56:10.968Z,-70
2019-06-26T22:58:40.826Z,-70
2019-06-26T23:01:10.141Z,-69
2019-06-26T23:03:39.509Z,-69
2019-06-26T23:06:08.876Z,-70
2019-06-26T23:08:38.206Z,-70
2019-06-26T23:11:07.638Z,-70
2019-06-26T23:13:36.958Z,-70
2019-06-26T23:16:06.297Z,-70
2019-06-26T23:18:35.749Z,-70
2019-06-26T23:21:05.068Z,-69
2019-06-26T23:23:34.397Z,-70
2019-06-26T23:26:03.915Z,-70
2019-06-26T23:28:33.241Z,-70
2019-06-26T23:31:03.489Z,-70
2019-06-26T23:33:32.804Z,-70
2019-06-26T23:36:03.235Z,-70
2019-06-26T23:38:32.542Z,-70
2019-06-26T23:41:01.856Z,-70
2019-06-26T23:43:31.166Z,-70
2019-06-26T23:46:02.390Z,-70
2019-06-26T23:48:31.699Z,-70
2019-06-26T23:51:01.043Z,-70
2019-06-26T23:53:31.838Z,-70
2019-06-26T23:56:01.150Z,-69
2019-06-26T23:58:31.429Z,-69
